Time;durP1;ratioP1;P1;durP2;ratioP2;P2;SDS_P1;SDS_P2;PMS_P1;PMS_P2;Temp;Humidity;BMP_temperature;BMP_pressure;BME280_temperature;BME280_humidity;BME280_pressure;Samples;Min_cycle;Max_cycle;Signal;HPM_P1;HPM_P2
2021/08/17 00:00:24;;;;;;;6.60;3.08;;;;;;;14.69;61.57;100318.75;5035139;28;20057;-63
2021/08/17 00:02:51;;;;;;;9.88;2.88;;;;;;;14.61;62.06;100329.72;5035462;28;20056;-63
2021/08/17 00:05:18;;;;;;;6.75;2.67;;;;;;;14.51;62.60;100341.31;5035036;28;20494;-63
2021/08/17 00:07:47;;;;;;;10.63;3.65;;;;;;;14.55;62.26;100336.69;5034884;28;20049;-63
2021/08/17 00:10:15;;;;;;;7.75;2.75;;;;;;;14.40;62.65;100328.88;5035300;28;20387;-63
2021/08/17 00:12:44;;;;;;;7.85;2.97;;;;;;;14.25;62.97;100321.13;5035219;28;20060;-63
2021/08/17 00:15:12;;;;;;;9.25;3.05;;;;;;;14.26;63.65;100336.75;5034290;28;20052;-63
2021/08/17 00:17:40;;;;;;;10.00;3.05;;;;;;;14.29;63.62;100327.69;5035365;28;20487;-63
2021/08/17 00:20:09;;;;;;;7.93;3.30;;;;;;;14.27;63.82;100344.00;5035192;28;20053;-63
2021/08/17 00:22:37;;;;;;;12.00;3.73;;;;;;;14.38;63.40;100340.47;5034831;28;20478;-63
2021/08/17 00:25:08;;;;;;;11.40;3.05;;;;;;;14.46;63.43;100347.13;5034668;28;20808;-63
2021/08/17 00:27:35;;;;;;;5.85;2.60;;;;;;;14.35;63.72;100340.31;5034938;28;20061;-63
2021/08/17 00:30:03;;;;;;;12.85;3.10;;;;;;;14.43;64.11;100345.03;5034305;28;20414;-63
2021/08/17 00:32:31;;;;;;;9.55;2.90;;;;;;;14.33;63.98;100335.06;5034684;28;20060;-63
2021/08/17 00:34:59;;;;;;;11.63;2.90;;;;;;;14.45;63.50;100337.09;5034232;28;20402;-63
2021/08/17 00:37:27;;;;;;;12.27;3.40;;;;;;;14.20;64.20;100336.97;5034095;28;20045;-63
2021/08/17 00:39:54;;;;;;;10.40;2.72;;;;;;;14.19;64.45;100340.09;5034382;28;20513;-63
2021/08/17 00:42:23;;;;;;;12.15;3.10;;;;;;;14.20;64.54;100342.56;5034512;28;20056;-63
2021/08/17 00:44:51;;;;;;;11.05;3.30;;;;;;;14.17;64.66;100343.28;5034400;28;20049;-63
2021/08/17 00:47:19;;;;;;;9.48;3.00;;;;;;;14.14;64.61;100346.75;5034848;28;20052;-63
2021/08/17 00:49:46;;;;;;;10.02;3.30;;;;;;;14.06;65.02;100342.03;5034010;28;20049;-63
2021/08/17 00:52:16;;;;;;;8.68;3.38;;;;;;;13.99;65.15;100336.16;5034456;28;20103;-63
2021/08/17 00:54:44;;;;;;;10.50;3.20;;;;;;;14.03;65.35;100328.72;5033642;28;20049;-63
2021/08/17 00:57:13;;;;;;;11.20;3.55;;;;;;;13.95;65.44;100335.19;5034394;28;20053;-63
2021/08/17 00:59:42;;;;;;;7.30;3.53;;;;;;;14.04;65.77;100333.16;5033860;28;20065;-63
2021/08/17 01:02:10;;;;;;;12.25;3.92;;;;;;;14.00;66.36;100333.00;5034468;28;20050;-63
2021/08/17 01:04:39;;;;;;;10.77;3.38;;;;;;;13.96;66.40;100337.66;5033803;28;20053;-63
2021/08/17 01:07:07;;;;;;;11.15;3.83;;;;;;;13.96;66.26;100331.22;5034040;28;20056;-64
2021/08/17 01:09:34;;;;;;;7.97;3.45;;;;;;;14.03;66.12;100345.53;5034249;28;20410;-63
2021/08/17 01:12:02;;;;;;;13.52;3.50;;;;;;;14.05;66.19;100334.81;5034133;28;20053;-63
2021/08/17 01:14:30;;;;;;;9.55;3.97;;;;;;;14.05;66.26;100334.81;5033507;28;20045;-63
2021/08/17 01:16:59;;;;;;;11.00;3.80;;;;;;;14.01;66.51;100342.25;5034261;28;20049;-63
2021/08/17 01:19:27;;;;;;;10.52;4.22;;;;;;;14.21;66.30;100334.97;5033576;28;20053;-63
2021/08/17 01:21:54;;;;;;;9.70;4.35;;;;;;;14.09;66.44;100344.16;5033698;28;20483;-63
2021/08/17 01:24:22;;;;;;;8.32;3.95;;;;;;;14.24;65.94;100351.13;5024098;28;20058;-63
2021/08/17 01:26:53;;;;;;;8.75;3.97;;;;;;;14.32;66.14;100350.22;5013894;28;20053;-63
2021/08/17 01:29:21;;;;;;;11.00;3.80;;;;;;;14.28;66.26;100342.84;5014124;28;20057;-63
2021/08/17 01:31:48;;;;;;;11.15;4.13;;;;;;;14.19;66.44;100352.16;5014243;28;20076;-63
2021/08/17 01:34:16;;;;;;;10.45;3.92;;;;;;;14.25;66.35;100361.16;5021611;28;20045;-63
2021/08/17 01:36:43;;;;;;;10.05;3.92;;;;;;;14.38;65.83;100356.44;5033474;28;20068;-63
2021/08/17 01:39:11;;;;;;;8.95;3.83;;;;;;;14.34;66.31;100361.91;5033013;28;20049;-63
2021/08/17 01:41:39;;;;;;;12.13;4.00;;;;;;;14.34;65.85;100369.47;5033641;28;20045;-63
2021/08/17 01:44:12;;;;;;;13.43;3.95;;;;;;;14.44;65.55;100374.69;5033018;28;20054;-63
2021/08/17 01:46:42;;;;;;;9.75;3.97;;;;;;;14.44;65.94;100366.25;5032815;28;20057;-64
2021/08/17 01:49:09;;;;;;;10.48;4.20;;;;;;;14.59;65.20;100374.09;5033259;28;20049;-63
2021/08/17 01:51:36;;;;;;;8.50;3.80;;;;;;;14.45;65.85;100365.13;5033324;28;20064;-63
2021/08/17 01:54:04;;;;;;;10.20;3.78;;;;;;;14.39;65.96;100372.09;5032653;28;20422;-63
2021/08/17 01:56:31;;;;;;;10.43;4.32;;;;;;;14.45;65.76;100367.91;5033301;28;20053;-63
2021/08/17 01:59:00;;;;;;;12.60;3.83;;;;;;;14.55;65.56;100372.28;5033189;28;20053;-63
2021/08/17 02:01:28;;;;;;;11.02;3.58;;;;;;;14.59;65.33;100359.22;5032905;28;20064;-63
2021/08/17 02:03:56;;;;;;;8.18;3.85;;;;;;;14.48;66.15;100375.63;5032821;28;20072;-63
2021/08/17 02:06:24;;;;;;;9.73;3.80;;;;;;;14.59;65.37;100370.44;5033035;28;20067;-63
2021/08/17 02:08:52;;;;;;;7.20;3.20;;;;;;;14.49;65.27;100377.28;5033377;28;20072;-63
2021/08/17 02:11:19;;;;;;;10.93;3.38;;;;;;;14.32;66.50;100378.25;5033202;28;20490;-63
2021/08/17 02:13:47;;;;;;;18.83;6.18;;;;;;;14.37;66.16;100374.41;5033048;28;20054;-63
2021/08/17 02:16:14;;;;;;;9.15;3.95;;;;;;;14.37;66.36;100375.22;5032175;28;20160;-63
2021/08/17 02:18:43;;;;;;;13.00;3.90;;;;;;;14.29;66.46;100376.13;5032604;28;20052;-63
2021/08/17 02:21:10;;;;;;;8.50;3.92;;;;;;;14.41;66.62;100375.38;5031796;28;20053;-63
2021/08/17 02:23:38;;;;;;;9.15;3.50;;;;;;;14.41;66.33;100380.97;5032771;28;20063;-63
2021/08/17 02:26:06;;;;;;;9.93;3.80;;;;;;;14.34;66.76;100392.75;5032344;28;20058;-63
2021/08/17 02:28:33;;;;;;;9.82;4.05;;;;;;;14.25;67.50;100382.75;5032882;28;20084;-63
2021/08/17 02:31:01;;;;;;;10.38;4.70;;;;;;;14.22;67.91;100395.47;5032529;28;20053;-63
2021/08/17 02:33:28;;;;;;;10.35;4.53;;;;;;;14.25;67.90;100391.16;5032557;28;20053;-63
2021/08/17 02:35:57;;;;;;;14.98;6.15;;;;;;;14.26;67.56;100385.22;5032159;28;20056;-63
2021/08/17 02:38:24;;;;;;;15.63;6.07;;;;;;;13.99;68.64;100394.97;5032663;28;20061;-63
2021/08/17 02:40:52;;;;;;;12.10;5.95;;;;;;;13.90;69.37;100397.84;5032007;28;21012;-63
2021/08/17 02:43:24;;;;;;;9.90;5.47;;;;;;;13.77;69.84;100394.13;5032485;28;20390;-63
2021/08/17 02:45:52;;;;;;;11.43;5.65;;;;;;;13.81;69.94;100397.84;5032057;28;20064;-63
2021/08/17 02:48:19;;;;;;;13.70;5.85;;;;;;;13.62;70.74;100400.28;5032655;28;20057;-63
2021/08/17 02:50:46;;;;;;;13.48;6.90;;;;;;;13.81;70.49;100391.44;5032650;28;20471;-63
2021/08/17 02:53:16;;;;;;;15.52;6.78;;;;;;;13.75;70.67;100399.22;5031814;28;20075;-63
2021/08/17 02:55:43;;;;;;;19.20;7.65;;;;;;;13.83;70.82;100400.31;5032347;28;20053;-63
2021/08/17 02:58:11;;;;;;;16.75;8.18;;;;;;;13.71;71.16;100401.06;5032758;28;20057;-62
2021/08/17 03:00:40;;;;;;;14.90;7.75;;;;;;;13.76;71.20;100392.47;5035929;28;20049;-63
2021/08/17 03:03:08;;;;;;;15.70;8.48;;;;;;;13.72;71.50;100405.50;5036195;28;20064;-63
2021/08/17 03:05:35;;;;;;;15.70;8.73;;;;;;;13.49;73.02;100393.75;5036054;28;20066;-63
2021/08/17 03:08:04;;;;;;;21.35;9.50;;;;;;;13.26;73.59;100398.75;5035478;28;20490;-63
2021/08/17 03:10:34;;;;;;;20.55;10.90;;;;;;;13.39;73.80;100389.34;5036048;28;20054;-63
2021/08/17 03:13:03;;;;;;;23.30;10.25;;;;;;;13.52;73.22;100400.66;5035717;28;20053;-63
2021/08/17 03:15:32;;;;;;;19.30;10.07;;;;;;;13.37;73.63;100405.63;5036074;28;20065;-63
2021/08/17 03:18:01;;;;;;;21.23;10.75;;;;;;;13.32;73.82;100397.44;5036053;28;20060;-63
2021/08/17 03:20:29;;;;;;;22.55;11.88;;;;;;;13.36;74.05;100404.00;5035836;28;20056;-63
2021/08/17 03:22:57;;;;;;;21.43;11.40;;;;;;;13.38;74.05;100401.69;5035778;28;20056;-63
2021/08/17 03:25:26;;;;;;;25.63;13.27;;;;;;;13.32;74.58;100405.84;5035632;28;20056;-63
2021/08/17 03:27:55;;;;;;;32.75;14.80;;;;;;;13.26;74.88;100404.34;5036351;28;20049;-63
2021/08/17 03:30:24;;;;;;;28.27;13.27;;;;;;;13.28;75.12;100396.44;5035941;28;20049;-63
2021/08/17 03:32:52;;;;;;;25.08;14.57;;;;;;;13.22;75.77;100400.56;5035344;28;20057;-63
2021/08/17 03:35:20;;;;;;;27.00;14.40;;;;;;;13.24;75.64;100401.06;5035714;28;20479;-63
2021/08/17 03:37:47;;;;;;;23.52;13.55;;;;;;;13.38;75.01;100396.09;5035512;28;20057;-63
2021/08/17 03:40:17;;;;;;;27.40;15.27;;;;;;;13.49;74.93;100398.53;5035612;28;20049;-63
2021/08/17 03:42:45;;;;;;;27.88;14.80;;;;;;;13.52;74.93;100395.06;5035743;28;20053;-63
2021/08/17 03:45:20;;;;;;;25.38;14.75;;;;;;;13.49;75.09;100402.16;5035028;28;20128;-63
2021/08/17 03:47:48;;;;;;;29.00;14.75;;;;;;;13.46;75.24;100400.03;5034291;28;20053;-63
2021/08/17 03:50:17;;;;;;;27.95;15.90;;;;;;;13.62;75.00;100405.88;5020387;28;20541;-63
2021/08/17 03:52:45;;;;;;;29.73;15.60;;;;;;;13.70;74.85;100405.00;5016062;28;20050;-63
2021/08/17 03:55:13;;;;;;;31.55;14.07;;;;;;;13.75;74.76;100404.00;5029441;28;20045;-63
2021/08/17 03:57:41;;;;;;;28.83;16.02;;;;;;;13.83;74.63;100389.13;5034989;28;20068;-63
2021/08/17 04:00:11;;;;;;;29.63;16.33;;;;;;;13.80;74.89;100390.63;5035169;28;20060;-63
2021/08/17 04:02:41;;;;;;;33.85;16.25;;;;;;;13.90;74.35;100388.59;5035219;28;20049;-63
2021/08/17 04:05:08;;;;;;;;;;;;;;;13.79;74.13;100391.78;5035992;28;20057;-63
2021/08/17 04:07:36;;;;;;;28.55;14.50;;;;;;;13.72;74.29;100393.47;5034666;28;19925;-63
2021/08/17 04:10:05;;;;;;;34.38;16.48;;;;;;;13.74;74.61;100394.78;5034618;28;20053;-63
2021/08/17 04:12:33;;;;;;;32.50;16.30;;;;;;;13.90;74.03;100396.97;5035222;28;20053;-63
2021/08/17 04:15:00;;;;;;;30.23;16.75;;;;;;;13.95;73.61;100396.81;5034835;28;20060;-63
2021/08/17 04:17:27;;;;;;;30.42;15.68;;;;;;;13.89;73.96;100403.75;5034237;28;20450;-63
2021/08/17 04:19:56;;;;;;;29.60;15.75;;;;;;;13.96;73.78;100406.84;5035206;28;20049;-63
2021/08/17 04:22:24;;;;;;;34.95;15.13;;;;;;;13.89;74.18;100403.75;5034457;28;20045;-63
2021/08/17 04:24:51;;;;;;;27.58;15.40;;;;;;;13.86;73.96;100398.81;5034063;28;20068;-61
2021/08/17 04:27:19;;;;;;;30.88;15.65;;;;;;;13.94;73.68;100406.34;5034806;28;20053;-61
2021/08/17 04:29:46;;;;;;;30.70;15.40;;;;;;;14.04;73.61;100407.94;5034984;28;20056;-63
2021/08/17 04:32:14;;;;;;;28.75;15.40;;;;;;;14.03;73.10;100404.34;5034963;28;20481;-62
2021/08/17 04:34:41;;;;;;;31.95;15.00;;;;;;;14.06;73.41;100408.44;5034205;28;20061;-62
2021/08/17 04:37:10;;;;;;;29.10;15.00;;;;;;;14.21;72.70;100405.03;5034920;28;20057;-62
2021/08/17 04:39:38;;;;;;;27.00;14.30;;;;;;;14.12;73.18;100407.88;5034011;28;20505;-62
2021/08/17 04:42:05;;;;;;;29.80;14.60;;;;;;;14.24;72.40;100412.75;5034471;28;20053;-62
2021/08/17 04:44:33;;;;;;;29.80;15.07;;;;;;;14.29;72.69;100423.75;5025104;28;20180;-62
2021/08/17 04:47:01;;;;;;;29.00;15.75;;;;;;;14.44;72.01;100418.69;5014504;28;20049;-62
2021/08/17 04:49:28;;;;;;;28.77;14.73;;;;;;;14.36;72.43;100418.44;5014643;28;20045;-62
2021/08/17 04:51:55;;;;;;;30.58;13.80;;;;;;;14.26;72.79;100429.22;5014635;28;20058;-62
2021/08/17 04:57:30;;;;;;;29.08;15.35;;;;;;;14.46;72.26;100422.78;5034804;28;20418;-60
2021/08/17 04:59:58;;;;;;;29.42;16.40;;;;;;;14.44;72.41;100424.31;5033145;28;20518;-60
2021/08/17 05:02:25;;;;;;;34.65;15.93;;;;;;;14.45;72.07;100423.97;5033355;28;20049;-61
2021/08/17 05:04:53;;;;;;;29.00;14.90;;;;;;;14.61;71.94;100435.41;5033480;28;20053;-61
2021/08/17 05:07:20;;;;;;;32.40;15.85;;;;;;;14.66;71.53;100429.59;5033667;28;20072;-61
2021/08/17 05:09:48;;;;;;;28.27;14.93;;;;;;;14.87;71.17;100421.16;5033485;28;20045;-61
2021/08/17 05:12:16;;;;;;;27.30;14.88;;;;;;;14.89;71.02;100429.22;5027612;28;20053;-61
2021/08/17 05:14:43;;;;;;;27.60;14.15;;;;;;;14.82;71.26;100421.34;5032548;28;20053;-61
2021/08/17 05:17:11;;;;;;;26.77;14.77;;;;;;;15.04;70.54;100424.97;5032937;28;20045;-57
2021/08/17 05:19:38;;;;;;;29.85;14.45;;;;;;;14.97;70.92;100431.09;5033306;28;20049;-59
2021/08/17 05:22:06;;;;;;;25.63;13.25;;;;;;;15.20;69.96;100443.59;5032625;28;20056;-61
2021/08/17 05:24:33;;;;;;;27.98;14.55;;;;;;;15.37;69.12;100436.97;5019572;28;20049;-61
2021/08/17 05:27:02;;;;;;;23.80;13.05;;;;;;;15.49;68.69;100436.16;5022738;28;20045;-61
2021/08/17 05:29:30;;;;;;;23.00;12.18;;;;;;;15.66;68.08;100426.69;5048044;28;20489;-60
2021/08/17 05:31:57;;;;;;;25.17;12.35;;;;;;;15.77;67.74;100435.50;5031731;28;20057;-58
2021/08/17 05:34:25;;;;;;;22.52;12.63;;;;;;;16.01;66.91;100431.88;5028783;28;20496;-57
2021/08/17 05:36:52;;;;;;;20.60;11.57;;;;;;;16.12;66.16;100433.03;5052910;28;20398;-61
2021/08/17 05:39:20;;;;;;;22.17;12.25;;;;;;;16.11;66.46;100436.22;5033341;28;20053;-61
2021/08/17 05:41:47;;;;;;;21.70;12.07;;;;;;;16.29;65.44;100428.31;5032776;28;20050;-61
2021/08/17 05:44:17;;;;;;;20.27;10.95;;;;;;;16.46;65.00;100427.22;5032021;28;20060;-61
2021/08/17 05:46:44;;;;;;;;;;;;;;;16.33;64.64;100435.69;5033466;28;20406;-61
2021/08/17 05:49:11;;;;;;;21.67;10.68;;;;;;;16.58;64.68;100436.44;5026736;28;19928;-60
2021/08/17 05:51:39;;;;;;;18.75;10.05;;;;;;;16.54;64.43;100424.28;5029688;28;20397;-61
2021/08/17 05:54:06;;;;;;;19.95;11.55;;;;;;;16.70;64.09;100424.34;5052573;28;20064;-61
2021/08/17 05:56:33;;;;;;;21.88;10.13;;;;;;;16.99;62.50;100426.00;5031643;28;20057;-61
2021/08/17 05:59:01;;;;;;;17.17;9.80;;;;;;;16.95;62.90;100432.72;5032582;28;20060;-61
2021/08/17 06:01:30;;;;;;;16.73;10.55;;;;;;;16.80;63.20;100426.69;5032080;28;20053;-60
2021/08/17 06:03:57;;;;;;;20.33;10.57;;;;;;;16.62;63.73;100439.38;5032345;28;20060;-61
2021/08/17 06:06:25;;;;;;;19.42;10.27;;;;;;;16.62;63.93;100437.38;5031562;28;20056;-60
2021/08/17 06:08:52;;;;;;;17.70;11.55;;;;;;;16.59;64.12;100440.09;5031952;28;20054;-60
2021/08/17 06:11:19;;;;;;;20.30;11.40;;;;;;;16.67;64.18;100436.28;5031991;28;20497;-61
2021/08/17 06:13:48;;;;;;;21.58;11.73;;;;;;;16.55;64.28;100444.81;5032700;28;20072;-61
2021/08/17 06:16:15;;;;;;;21.65;11.93;;;;;;;16.69;64.27;100441.56;5031505;28;20049;-61
2021/08/17 06:18:44;;;;;;;20.55;12.05;;;;;;;16.62;64.99;100437.38;5032442;28;20053;-49
2021/08/17 06:21:11;;;;;;;22.73;12.45;;;;;;;16.27;66.12;100447.53;5032667;28;20045;-47
2021/08/17 06:23:39;;;;;;;21.58;13.10;;;;;;;16.33;65.60;100440.50;5032334;28;20060;-48
2021/08/17 06:26:06;;;;;;;22.42;12.77;;;;;;;16.27;65.62;100433.47;5032452;28;20054;-49
2021/08/17 06:28:33;;;;;;;21.92;12.18;;;;;;;16.62;64.81;100445.00;5031745;28;20049;-48
2021/08/17 06:31:00;;;;;;;23.55;13.32;;;;;;;16.61;65.18;100446.19;5031928;28;20041;-48
2021/08/17 06:33:28;;;;;;;20.88;13.15;;;;;;;16.93;63.44;100424.63;5033540;28;20053;-56
2021/08/17 06:35:57;;;;;;;21.23;12.68;;;;;;;17.61;61.24;100436.91;5033613;28;20049;-60
2021/08/17 06:38:24;;;;;;;24.73;13.77;;;;;;;17.61;61.01;100423.63;5036030;28;20064;-58
2021/08/17 06:40:51;;;;;;;21.15;13.48;;;;;;;17.73;60.54;100424.72;5036740;28;20060;-57
2021/08/17 06:43:19;;;;;;;22.05;13.82;;;;;;;17.78;60.68;100428.06;5036523;28;20501;-60
2021/08/17 06:45:46;;;;;;;24.33;14.98;;;;;;;18.16;59.55;100432.22;5035995;28;20064;-61
2021/08/17 06:48:13;;;;;;;23.65;13.75;;;;;;;18.29;59.29;100434.94;5035713;28;20136;-60
2021/08/17 06:50:41;;;;;;;20.35;13.80;;;;;;;18.51;58.03;100437.06;5035924;28;20075;-61
2021/08/17 06:53:09;;;;;;;19.75;13.93;;;;;;;18.25;59.02;100432.06;5035818;28;20053;-60
2021/08/17 06:55:37;;;;;;;23.83;14.73;;;;;;;18.09;59.19;100443.34;5034717;28;20049;-61
2021/08/17 06:58:04;;;;;;;18.85;13.35;;;;;;;18.44;58.80;100449.00;5034945;28;20052;-59
2021/08/17 07:00:32;;;;;;;18.88;13.38;;;;;;;18.76;57.49;100448.06;5035940;28;20060;-60
2021/08/17 07:02:59;;;;;;;23.50;13.95;;;;;;;19.18;56.62;100455.81;5036389;28;20057;-60
2021/08/17 07:05:27;;;;;;;21.27;12.98;;;;;;;18.84;57.33;100461.19;5035863;28;20064;-60
2021/08/17 07:07:54;;;;;;;20.80;13.13;;;;;;;18.93;57.21;100453.28;5035668;28;20061;-60
2021/08/17 07:10:23;;;;;;;20.50;14.20;;;;;;;19.16;56.96;100452.53;5019001;28;20053;-60
2021/08/17 07:12:50;;;;;;;19.40;13.90;;;;;;;19.23;56.57;100442.22;5031501;28;20065;-61
2021/08/17 07:15:17;;;;;;;21.77;13.20;;;;;;;19.43;55.63;100434.50;5030575;28;20980;-61
2021/08/17 07:17:45;;;;;;;19.60;13.60;;;;;;;19.41;56.25;100445.34;5016055;28;20077;-61
2021/08/17 07:20:13;;;;;;;18.90;12.45;;;;;;;19.33;56.54;100434.28;5033455;28;20056;-60
2021/08/17 07:22:40;;;;;;;18.45;11.95;;;;;;;19.94;55.97;100435.38;5031764;28;20052;-60
2021/08/17 07:25:08;;;;;;;23.27;14.20;;;;;;;20.05;54.66;100436.34;5032582;28;20068;-60
2021/08/17 07:27:37;;;;;;;18.08;13.40;;;;;;;20.28;54.20;100428.66;5034175;28;20057;-61
2021/08/17 07:30:11;;;;;;;17.77;12.10;;;;;;;20.36;53.92;100437.22;5033903;28;20057;-61
2021/08/17 07:32:40;;;;;;;21.33;13.40;;;;;;;20.15;54.33;100444.19;5033613;28;20049;-61
2021/08/17 07:35:09;;;;;;;20.40;13.63;;;;;;;20.27;54.02;100437.50;5032987;28;20091;-60
2021/08/17 07:37:36;;;;;;;21.95;13.18;;;;;;;19.97;55.21;100441.09;5033363;28;20064;-60
2021/08/17 07:40:05;;;;;;;21.10;13.30;;;;;;;19.71;55.77;100433.38;5032364;28;20422;-59
2021/08/17 07:42:33;;;;;;;21.03;14.00;;;;;;;19.47;56.93;100435.38;5032734;28;20057;-61
2021/08/17 07:45:03;;;;;;;21.67;15.05;;;;;;;19.47;57.24;100440.22;5029591;28;20483;-61
2021/08/17 07:47:30;;;;;;;19.23;13.27;;;;;;;19.78;56.23;100439.19;5029151;28;20057;-60
2021/08/17 07:49:58;;;;;;;22.27;13.57;;;;;;;20.00;56.07;100442.34;5032417;28;20068;-61
2021/08/17 07:52:25;;;;;;;22.00;14.32;;;;;;;19.87;56.10;100451.03;5032939;28;20421;-61
2021/08/17 07:54:53;;;;;;;21.40;14.40;;;;;;;19.53;57.23;100444.34;5032499;28;20060;-61
2021/08/17 07:57:20;;;;;;;25.65;15.52;;;;;;;19.73;56.89;100435.84;5032758;28;20053;-60
2021/08/17 07:59:47;;;;;;;20.88;14.13;;;;;;;20.55;55.01;100444.78;5032233;28;20498;-61
2021/08/17 08:02:16;;;;;;;21.92;14.27;;;;;;;20.82;53.92;100437.88;5032882;28;20049;-61
2021/08/17 08:04:44;;;;;;;21.27;14.30;;;;;;;20.65;54.27;100447.78;5031821;28;20402;-61
2021/08/17 08:07:11;;;;;;;23.58;15.85;;;;;;;20.35;54.81;100449.72;5032495;28;20513;-61
2021/08/17 08:09:38;;;;;;;23.83;15.65;;;;;;;19.81;57.04;100455.38;5032137;28;20136;-60
2021/08/17 08:12:10;;;;;;;24.02;15.40;;;;;;;20.05;56.11;100448.50;5032543;28;20058;-61
2021/08/17 08:14:38;;;;;;;24.50;15.68;;;;;;;20.05;56.34;100437.19;5032452;28;20060;-61
2021/08/17 08:17:05;;;;;;;24.65;14.30;;;;;;;20.16;55.46;100428.03;5030018;28;20053;-61
2021/08/17 08:19:34;;;;;;;26.27;16.75;;;;;;;19.80;56.96;100422.66;5031411;28;20076;-61
2021/08/17 08:22:03;;;;;;;24.42;15.18;;;;;;;19.56;58.07;100420.19;5032285;28;20061;-61
2021/08/17 08:24:31;;;;;;;;;;;;;;;19.28;58.76;100429.78;5032020;28;20045;-61
2021/08/17 08:26:58;;;;;;;29.73;16.58;;;;;;;19.05;59.29;100427.72;5031911;28;19928;-60
2021/08/17 08:29:25;;;;;;;22.40;15.18;;;;;;;19.40;58.75;100429.59;5031868;28;20056;-59
2021/08/17 08:31:53;;;;;;;24.45;15.88;;;;;;;19.40;58.20;100435.25;5031381;28;20513;-60
2021/08/17 08:34:20;;;;;;;24.38;15.65;;;;;;;19.47;57.91;100417.63;5031937;28;20050;-59
2021/08/17 08:36:50;;;;;;;24.27;15.63;;;;;;;20.06;56.18;100421.03;5028703;28;20042;-60
2021/08/17 08:39:17;;;;;;;;;;;;;;;21.18;52.61;100412.00;5031936;28;20506;-60
2021/08/17 08:41:48;;;;;;;24.52;15.18;;;;;;;20.97;53.15;100413.38;5032013;28;19920;-60
2021/08/17 08:44:16;;;;;;;21.90;14.20;;;;;;;22.26;50.13;100423.09;5033596;28;20064;-60
2021/08/17 08:46:43;;;;;;;24.08;14.73;;;;;;;24.09;45.87;100419.97;5034894;28;20058;-60
2021/08/17 08:49:11;;;;;;;17.90;12.98;;;;;;;25.72;42.39;100416.81;5031835;28;20072;-60
2021/08/17 08:51:39;;;;;;;18.23;12.60;;;;;;;26.22;40.08;100421.25;5032057;28;20058;-61
2021/08/17 08:54:09;;;;;;;19.55;12.95;;;;;;;25.28;41.11;100426.91;5026980;28;20060;-60
2021/08/17 08:56:36;;;;;;;18.95;12.73;;;;;;;25.38;41.55;100416.63;5032355;28;20057;-60
2021/08/17 08:59:03;;;;;;;20.88;15.35;;;;;;;25.14;41.47;100409.03;5030781;28;20045;-60
2021/08/17 09:01:31;;;;;;;20.08;15.02;;;;;;;25.47;41.13;100410.47;5031249;28;20060;-60
2021/08/17 09:03:58;;;;;;;20.58;13.80;;;;;;;25.82;39.84;100417.13;5030428;28;20498;-59
2021/08/17 09:06:28;;;;;;;19.23;12.30;;;;;;;25.36;40.86;100421.94;5031370;28;20050;-60
2021/08/17 09:09:09;;;;;;;18.45;12.65;;;;;;;24.52;42.48;100409.28;5030967;28;20053;-61
2021/08/17 09:11:39;;;;;;;17.88;11.90;;;;;;;23.54;44.67;100411.78;5027601;28;20056;-61
2021/08/17 09:14:26;;;;;;;19.13;12.80;;;;;;;22.68;46.60;100424.53;5025333;28;20053;-61
2021/08/17 09:16:58;;;;;;;17.55;12.63;;;;;;;22.37;46.69;100411.81;5031195;28;20061;-61
2021/08/17 09:19:30;;;;;;;20.10;12.60;;;;;;;21.89;47.77;100414.69;5031159;28;20050;-61
2021/08/17 09:22:01;;;;;;;20.15;12.25;;;;;;;21.03;49.54;100417.50;5031190;28;20494;-61
2021/08/17 09:24:31;;;;;;;16.25;11.30;;;;;;;21.39;49.24;100415.03;5030804;28;20072;-61
2021/08/17 09:27:01;;;;;;;17.58;12.00;;;;;;;21.52;48.54;100406.28;5031158;28;20076;-61
2021/08/17 09:29:35;;;;;;;16.88;11.25;;;;;;;21.26;49.31;100413.69;5030903;28;20053;-61
2021/08/17 09:32:13;;;;;;;16.08;9.90;;;;;;;21.37;47.99;100408.13;5031107;28;20073;-61
2021/08/17 09:34:43;;;;;;;17.90;11.88;;;;;;;20.60;50.31;100404.81;5030541;28;20402;-60
2021/08/17 09:37:11;;;;;;;16.42;10.43;;;;;;;20.49;50.63;100407.50;5031576;28;20068;-61
2021/08/17 09:39:46;;;;;;;14.48;10.00;;;;;;;20.29;51.57;100418.16;5031586;28;20052;-61
2021/08/17 09:42:20;;;;;;;14.73;10.35;;;;;;;20.26;51.64;100421.72;5031984;28;20057;-60
2021/08/17 09:45:02;;;;;;;16.30;10.88;;;;;;;20.50;50.98;100411.97;5031240;28;20056;-60
2021/08/17 09:47:30;;;;;;;17.23;11.13;;;;;;;20.34;52.07;100411.34;5031677;28;20066;-61
2021/08/17 09:50:16;;;;;;;15.93;11.48;;;;;;;20.98;50.99;100406.53;5030847;28;20065;-60
2021/08/17 09:52:43;;;;;;;18.42;11.00;;;;;;;21.36;49.64;100409.34;5031567;28;20057;-61
2021/08/17 09:55:16;;;;;;;19.65;11.60;;;;;;;21.34;48.75;100418.22;5030483;28;20056;-61
2021/08/17 09:57:44;;;;;;;17.50;11.57;;;;;;;21.32;49.04;100417.00;5030293;28;20429;-61
2021/08/17 10:00:16;;;;;;;22.33;11.93;;;;;;;21.18;49.78;100424.13;5029689;28;20049;-61
2021/08/17 10:02:45;;;;;;;19.58;12.32;;;;;;;21.12;50.41;100422.03;5030454;28;20068;-61
2021/08/17 10:05:13;;;;;;;;;;;;;;;20.76;51.41;100424.44;5030698;28;20045;-61
2021/08/17 10:07:42;;;;;;;19.13;12.27;;;;;;;20.80;50.78;100428.16;5029587;28;20305;-61
2021/08/17 10:10:11;;;;;;;21.65;11.98;;;;;;;20.73;50.77;100437.38;5030453;28;20061;-61
2021/08/17 10:12:40;;;;;;;;;;;;;;;20.71;50.70;100441.78;5031799;28;20051;-61
2021/08/17 10:15:09;;;;;;;17.97;11.13;;;;;;;20.79;50.57;100435.00;5031310;28;20370;-61
2021/08/17 10:17:37;;;;;;;20.35;11.15;;;;;;;20.71;51.29;100430.47;5031055;28;20057;-61
2021/08/17 10:20:05;;;;;;;18.40;12.13;;;;;;;20.37;52.30;100424.69;5030465;28;20052;-61
2021/08/17 10:22:38;;;;;;;18.95;11.98;;;;;;;20.45;52.31;100430.09;5030341;28;20053;-60
2021/08/17 10:25:10;;;;;;;18.80;10.65;;;;;;;20.42;51.65;100433.69;5029653;28;20053;-61
2021/08/17 10:27:38;;;;;;;18.15;11.23;;;;;;;20.70;50.92;100435.28;5030608;28;20058;-59
2021/08/17 10:30:21;;;;;;;17.15;10.23;;;;;;;20.54;50.64;100435.47;5030175;28;20058;-61
2021/08/17 10:32:54;;;;;;;17.45;10.93;;;;;;;21.13;49.65;100430.16;5029480;28;20054;-61
2021/08/17 10:35:55;;;;;;;17.45;11.38;;;;;;;21.40;48.12;100433.69;5029961;28;20510;-60
2021/08/17 10:38:43;;;;;;;17.30;10.85;;;;;;;21.12;49.14;100430.53;5024797;28;20068;-60
2021/08/17 10:41:11;;;;;;;19.88;11.60;;;;;;;21.04;48.90;100427.63;5030100;28;20057;-60
2021/08/17 10:44:12;;;;;;;18.33;11.15;;;;;;;21.28;48.63;100423.44;5029992;28;20064;-61
2021/08/17 10:46:57;;;;;;;17.23;11.25;;;;;;;20.86;49.77;100418.91;5026509;28;20057;-61
2021/08/17 10:49:53;;;;;;;16.60;10.95;;;;;;;20.71;50.46;100416.31;5028800;28;20052;-61
2021/08/17 10:52:41;;;;;;;16.95;10.15;;;;;;;20.45;49.52;100392.47;5021396;28;20402;-61
2021/08/17 10:55:38;;;;;;;14.45;9.68;;;;;;;20.41;49.70;100391.63;5017947;28;20054;-60
2021/08/17 10:58:09;;;;;;;14.63;9.95;;;;;;;20.59;49.70;100380.56;5023108;28;20049;-61
2021/08/17 11:00:59;;;;;;;16.55;10.02;;;;;;;20.61;48.88;100381.81;5029599;28;20061;-61
2021/08/17 11:03:52;;;;;;;19.23;10.73;;;;;;;20.43;49.69;100394.88;5029262;28;20045;-61
2021/08/17 11:06:52;;;;;;;14.90;9.63;;;;;;;20.95;49.17;100401.63;5028571;28;20053;-61
2021/08/17 11:09:22;;;;;;;18.23;10.73;;;;;;;20.48;50.17;100420.03;5028541;28;20053;-61
2021/08/17 11:11:55;;;;;;;14.95;9.55;;;;;;;20.80;49.41;100414.78;5028640;28;20053;-62
2021/08/17 11:14:24;;;;;;;15.07;9.93;;;;;;;20.80;49.31;100408.31;5024493;28;20049;-59
2021/08/17 11:16:54;;;;;;;13.90;9.68;;;;;;;21.07;48.86;100395.69;5029557;28;20056;-60
2021/08/17 11:19:25;;;;;;;16.17;11.30;;;;;;;21.09;49.02;100396.13;5030241;28;20056;-60
2021/08/17 11:21:54;;;;;;;14.43;9.95;;;;;;;20.90;48.50;100401.97;5033658;28;20069;-60
2021/08/17 11:24:28;;;;;;;16.65;9.88;;;;;;;20.82;48.22;100400.25;5033198;28;20486;-60
2021/08/17 11:27:00;;;;;;;16.38;9.73;;;;;;;20.74;48.05;100419.16;5033499;28;20053;-60